Time,TemperatureF,DewpointF,PressureIn,WindDirection,WindDirectionDegrees,WindSpeedMPH,WindSpeedGustMPH,Humidity,HourlyPrecipIn,Conditions,Clouds,dailyrainin,SolarRadiationWatts/m^2,SoftwareType,DateUTC
2013-09-25 00:24:00,58.0,47.0,-100.00,South,184,2.0,7.0,67,0.00,,,0.00,0.000000,,2013-09-25 04:24:00,
2013-09-25 00:54:00,62.0,50.0,-100.00,East,100,4.0,7.0,64,0.00,,,0.00,0.000000,,2013-09-25 04:54:00,
2013-09-25 01:03:00,62.0,50.0,-100.00,East,100,4.0,7.0,64,0.00,,,0.00,0.000000,,2013-09-25 05:03:00,
2013-09-25 01:13:00,62.0,50.0,-100.00,East,100,4.0,7.0,64,0.00,,,0.00,0.000000,,2013-09-25 05:13:00,
2013-09-25 01:23:00,62.0,50.0,-100.00,East,100,4.0,7.0,64,0.00,,,0.00,0.000000,,2013-09-25 05:23:00,
2013-09-25 02:23:00,58.0,47.0,-100.00,West,264,1.0,7.0,66,0.00,,,0.00,0.000000,,2013-09-25 06:23:00,
2013-09-25 02:52:00,62.0,49.0,-100.00,East,99,4.0,7.0,62,0.00,,,-99.99,0.000000,,2013-09-25 06:52:00,
2013-09-25 03:01:00,62.0,49.0,-100.00,East,99,4.0,7.0,62,0.00,,,-99.99,0.000000,,2013-09-25 07:01:00,
2013-09-25 03:12:00,62.0,49.0,-100.00,East,99,4.0,7.0,62,0.00,,,-99.99,0.000000,,2013-09-25 07:12:00,
2013-09-25 03:22:00,62.0,49.0,-100.00,East,99,4.0,7.0,62,0.00,,,-99.99,0.000000,,2013-09-25 07:22:00,
2013-09-25 03:53:00,59.0,47.0,-100.00,WSW,247,0.0,6.0,65,0.00,,,0.00,0.000000,,2013-09-25 07:53:00,
2013-09-25 04:02:00,59.0,47.0,-100.00,WSW,247,0.0,6.0,65,0.00,,,0.00,0.000000,,2013-09-25 08:02:00,
2013-09-25 04:12:00,59.0,47.0,-100.00,WSW,247,0.0,6.0,65,0.00,,,0.00,0.000000,,2013-09-25 08:12:00,
2013-09-25 04:21:00,59.0,47.0,-100.00,WSW,247,0.0,6.0,65,0.00,,,0.00,0.000000,,2013-09-25 08:21:00,
2013-09-25 04:53:00,62.0,50.0,-100.00,East,82,5.0,7.0,65,0.00,,,0.00,0.000000,,2013-09-25 08:53:00,
2013-09-25 05:02:00,62.0,50.0,-100.00,East,82,5.0,7.0,65,0.00,,,0.00,0.000000,,2013-09-25 09:02:00,
2013-09-25 05:11:00,62.0,50.0,-100.00,East,82,5.0,7.0,65,0.00,,,0.00,0.000000,,2013-09-25 09:11:00,
2013-09-25 05:22:00,62.0,50.0,-100.00,East,82,5.0,7.0,65,0.00,,,0.00,0.000000,,2013-09-25 09:22:00,
2013-09-25 05:54:00,64.0,50.0,-100.00,East,86,5.0,8.0,61,0.00,,,0.00,0.000000,,2013-09-25 09:54:00,
2013-09-25 06:04:00,64.0,50.0,-100.00,East,86,5.0,8.0,61,0.00,,,0.00,0.000000,,2013-09-25 10:04:00,
2013-09-25 06:12:00,64.0,50.0,-100.00,East,86,5.0,8.0,61,0.00,,,0.00,0.000000,,2013-09-25 10:12:00,
2013-09-25 06:23:00,64.0,50.0,-100.00,East,86,5.0,8.0,61,0.00,,,0.00,0.000000,,2013-09-25 10:23:00,
2013-09-25 06:53:00,66.0,50.0,-100.00,ENE,69,5.0,9.0,56,0.00,,,0.00,0.000000,,2013-09-25 10:53:00,
2013-09-25 07:02:00,66.0,50.0,-100.00,ENE,69,5.0,9.0,56,0.00,,,0.00,0.000000,,2013-09-25 11:02:00,
2013-09-25 07:12:00,66.0,50.0,-100.00,ENE,69,5.0,9.0,56,0.00,,,0.00,0.000000,,2013-09-25 11:12:00,
2013-09-25 07:22:00,66.0,50.0,-100.00,ENE,69,5.0,9.0,56,0.00,,,0.00,0.000000,,2013-09-25 11:22:00,
2013-09-25 07:52:00,66.0,50.0,-100.00,ENE,62,3.0,7.0,56,0.00,,,0.00,9.000000,,2013-09-25 11:52:00,
2013-09-25 08:02:00,66.0,50.0,-100.00,ENE,62,3.0,7.0,56,0.00,,,0.00,9.000000,,2013-09-25 12:02:00,
2013-09-25 08:12:00,66.0,50.0,-100.00,ENE,62,3.0,7.0,56,0.00,,,0.00,9.000000,,2013-09-25 12:12:00,
2013-09-25 08:22:00,66.0,50.0,-100.00,ENE,62,3.0,7.0,56,0.00,,,0.00,9.000000,,2013-09-25 12:22:00,
2013-09-25 08:52:00,68.0,52.0,-100.00,ENE,68,5.0,9.0,56,0.00,,,0.00,67.000000,,2013-09-25 12:52:00,
2013-09-25 09:02:00,68.0,52.0,-100.00,ENE,68,5.0,9.0,56,0.00,,,0.00,67.000000,,2013-09-25 13:02:00,
2013-09-25 09:12:00,68.0,52.0,-100.00,ENE,68,5.0,9.0,56,0.00,,,0.00,67.000000,,2013-09-25 13:12:00,
2013-09-25 09:22:00,68.0,52.0,-100.00,ENE,68,5.0,9.0,56,0.00,,,0.00,67.000000,,2013-09-25 13:22:00,
2013-09-25 09:52:00,69.0,52.0,-100.00,NE,53,4.0,8.0,55,0.00,,,0.00,87.000000,,2013-09-25 13:52:00,
2013-09-25 10:02:00,69.0,52.0,-100.00,NE,53,4.0,8.0,55,0.00,,,0.00,87.000000,,2013-09-25 14:02:00,
2013-09-25 10:11:00,69.0,52.0,-100.00,NE,53,4.0,8.0,55,0.00,,,0.00,87.000000,,2013-09-25 14:11:00,
2013-09-25 10:22:00,69.0,52.0,-100.00,NE,53,4.0,8.0,55,0.00,,,0.00,87.000000,,2013-09-25 14:22:00,
2013-09-25 10:52:00,70.0,54.0,-100.00,ENE,64,7.0,11.0,56,0.00,,,0.00,306.000000,,2013-09-25 14:52:00,
2013-09-25 11:02:00,70.0,54.0,-100.00,ENE,64,7.0,11.0,56,0.00,,,0.00,306.000000,,2013-09-25 15:02:00,
2013-09-25 11:11:00,70.0,54.0,-100.00,ENE,64,7.0,11.0,56,0.00,,,0.00,306.000000,,2013-09-25 15:11:00,
2013-09-25 11:22:00,70.0,54.0,-100.00,ENE,64,7.0,11.0,56,0.00,,,0.00,306.000000,,2013-09-25 15:22:00,
2013-09-25 11:54:00,71.0,53.0,-100.00,NE,55,4.0,11.0,53,0.00,,,0.00,548.000000,,2013-09-25 15:54:00,
2013-09-25 12:03:00,71.0,53.0,-100.00,NE,55,4.0,11.0,53,0.00,,,0.00,548.000000,,2013-09-25 16:03:00,
2013-09-25 12:13:00,71.0,53.0,-100.00,NE,55,4.0,11.0,53,0.00,,,0.00,548.000000,,2013-09-25 16:13:00,
2013-09-25 12:23:00,71.0,53.0,-100.00,NE,55,4.0,11.0,53,0.00,,,0.00,548.000000,,2013-09-25 16:23:00,
2013-09-25 12:53:00,71.0,54.0,-100.00,NE,40,4.0,9.0,55,0.00,,,0.00,438.000000,,2013-09-25 16:53:00,
2013-09-25 13:03:00,71.0,54.0,-100.00,NE,40,4.0,9.0,55,0.00,,,0.00,438.000000,,2013-09-25 17:03:00,
2013-09-25 13:13:00,71.0,54.0,-100.00,NE,40,4.0,9.0,55,0.00,,,0.00,438.000000,,2013-09-25 17:13:00,
2013-09-25 13:23:00,71.0,54.0,-100.00,NE,40,4.0,9.0,55,0.00,,,0.00,438.000000,,2013-09-25 17:23:00,
2013-09-25 13:52:00,70.0,54.0,-100.00,NE,38,4.0,10.0,57,0.00,,,-99.99,280.000000,,2013-09-25 17:52:00,
2013-09-25 14:02:00,70.0,54.0,-100.00,NE,38,4.0,10.0,57,0.00,,,-99.99,280.000000,,2013-09-25 18:02:00,
2013-09-25 14:13:00,70.0,54.0,-100.00,NE,38,4.0,10.0,57,0.00,,,-99.99,280.000000,,2013-09-25 18:13:00,
2013-09-25 14:22:00,70.0,54.0,-100.00,NE,38,4.0,10.0,57,0.00,,,-99.99,280.000000,,2013-09-25 18:22:00,
2013-09-25 14:52:00,69.0,53.0,-100.00,NE,45,3.0,9.0,57,0.00,,,0.00,201.000000,,2013-09-25 18:52:00,
2013-09-25 15:02:00,69.0,53.0,-100.00,NE,45,3.0,9.0,57,0.00,,,0.00,201.000000,,2013-09-25 19:02:00,
2013-09-25 15:11:00,69.0,53.0,-100.00,NE,45,3.0,9.0,57,0.00,,,0.00,201.000000,,2013-09-25 19:11:00,
2013-09-25 15:22:00,69.0,53.0,-100.00,NE,45,3.0,9.0,57,0.00,,,0.00,201.000000,,2013-09-25 19:22:00,
2013-09-25 15:53:00,71.0,54.0,-100.00,ENE,59,4.0,9.0,56,0.00,,,0.00,344.000000,,2013-09-25 19:53:00,
2013-09-25 16:03:00,71.0,54.0,-100.00,ENE,59,4.0,9.0,56,0.00,,,0.00,344.000000,,2013-09-25 20:03:00,
2013-09-25 16:12:00,71.0,54.0,-100.00,ENE,59,4.0,9.0,56,0.00,,,0.00,344.000000,,2013-09-25 20:12:00,
2013-09-25 16:22:00,71.0,54.0,-100.00,ENE,59,4.0,9.0,56,0.00,,,0.00,344.000000,,2013-09-25 20:22:00,
2013-09-25 16:52:00,71.0,54.0,-100.00,ENE,61,5.0,9.0,56,0.00,,,0.00,236.000000,,2013-09-25 20:52:00,
2013-09-25 17:02:00,71.0,54.0,-100.00,ENE,61,5.0,9.0,56,0.00,,,0.00,236.000000,,2013-09-25 21:02:00,
2013-09-25 17:12:00,71.0,54.0,-100.00,ENE,61,5.0,9.0,56,0.00,,,0.00,236.000000,,2013-09-25 21:12:00,
2013-09-25 17:22:00,71.0,54.0,-100.00,ENE,61,5.0,9.0,56,0.00,,,0.00,236.000000,,2013-09-25 21:22:00,
2013-09-25 17:55:00,70.0,54.0,-100.00,NE,46,3.0,8.0,56,0.00,,,0.00,239.000000,,2013-09-25 21:55:00,
2013-09-25 18:04:00,70.0,54.0,-100.00,NE,46,3.0,8.0,56,0.00,,,0.00,239.000000,,2013-09-25 22:04:00,
2013-09-25 18:14:00,70.0,54.0,-100.00,NE,46,3.0,8.0,56,0.00,,,0.00,239.000000,,2013-09-25 22:14:00,
2013-09-25 18:23:00,70.0,54.0,-100.00,NE,46,3.0,8.0,56,0.00,,,0.00,239.000000,,2013-09-25 22:23:00,
2013-09-25 18:53:00,69.0,54.0,-100.00,NNE,28,3.0,8.0,58,0.00,,,0.00,110.000000,,2013-09-25 22:53:00,
2013-09-25 19:03:00,69.0,54.0,-100.00,NNE,28,3.0,8.0,58,0.00,,,0.00,110.000000,,2013-09-25 23:03:00,
2013-09-25 19:12:00,69.0,54.0,-100.00,NNE,28,3.0,8.0,58,0.00,,,0.00,110.000000,,2013-09-25 23:12:00,
2013-09-25 19:23:00,69.0,54.0,-100.00,NNE,28,3.0,8.0,58,0.00,,,0.00,110.000000,,2013-09-25 23:23:00,
2013-09-25 19:53:00,68.0,53.0,-100.00,NNE,29,3.0,8.0,59,0.00,,,0.00,16.000000,,2013-09-25 23:53:00,
2013-09-25 20:02:00,68.0,53.0,-100.00,NNE,29,3.0,8.0,59,0.00,,,0.00,16.000000,,2013-09-26 00:02:00,
2013-09-25 20:12:00,68.0,53.0,-100.00,NNE,29,3.0,8.0,59,0.00,,,0.00,16.000000,,2013-09-26 00:12:00,
2013-09-25 20:22:00,68.0,53.0,-100.00,NNE,29,3.0,8.0,59,0.00,,,0.00,16.000000,,2013-09-26 00:22:00,
2013-09-25 20:52:00,68.0,54.0,-100.00,NNE,27,3.0,8.0,60,0.00,,,0.00,0.000000,,2013-09-26 00:52:00,
2013-09-25 21:02:00,68.0,54.0,-100.00,NNE,27,3.0,8.0,60,0.00,,,0.00,0.000000,,2013-09-26 01:02:00,
2013-09-25 21:12:00,68.0,54.0,-100.00,NNE,27,3.0,8.0,60,0.00,,,0.00,0.000000,,2013-09-26 01:12:00,
2013-09-25 21:23:00,68.0,54.0,-100.00,NNE,27,3.0,8.0,60,0.00,,,0.00,0.000000,,2013-09-26 01:23:00,
2013-09-25 21:52:00,68.0,53.0,-100.00,NE,39,3.0,8.0,59,0.00,,,0.00,0.000000,,2013-09-26 01:52:00,
2013-09-25 22:02:00,68.0,53.0,-100.00,NE,39,3.0,8.0,59,0.00,,,0.00,0.000000,,2013-09-26 02:02:00,
2013-09-25 22:13:00,68.0,53.0,-100.00,NE,39,3.0,8.0,59,0.00,,,0.00,0.000000,,2013-09-26 02:13:00,
2013-09-25 22:22:00,68.0,53.0,-100.00,NE,39,3.0,8.0,59,0.00,,,0.00,0.000000,,2013-09-26 02:22:00,
2013-09-25 23:12:00,69.0,55.0,-100.00,ENE,67,6.0,11.0,60,0.00,,,0.00,0.000000,,2013-09-26 03:12:00,
2013-09-25 23:23:00,69.0,55.0,-100.00,ENE,67,6.0,11.0,60,0.00,,,0.00,0.000000,,2013-09-26 03:23:00,
2013-09-25 23:55:00,69.0,55.0,-100.00,ENE,68,9.0,13.0,61,0.00,,,0.00,0.000000,,2013-09-26 03:55:00,